Time;durP1;ratioP1;P1;durP2;ratioP2;P2;SDS_P1;SDS_P2;PMS_P1;PMS_P2;Temp;Humidity;BMP_temperature;BMP_pressure;BME280_temperature;BME280_humidity;BME280_pressure;Samples;Min_cycle;Max_cycle;Signal;HPM_P1;HPM_P2
2022/09/18 00:01:31;;;;;;;0.70;0.70;;;10.80;75.10;;;10.52;62.07;94228.19;5035441;28;20233;-80
2022/09/18 00:04:03;;;;;;;0.80;0.80;;;10.80;75.10;;;10.52;61.93;94223.75;5041175;28;20525;-81
2022/09/18 00:06:33;;;;;;;0.82;0.82;;;10.80;75.10;;;10.54;61.96;94229.56;5020405;28;20686;-80
2022/09/18 00:09:02;;;;;;;0.70;0.70;;;10.80;75.20;;;10.54;61.85;94229.56;5019583;28;20203;-81
2022/09/18 00:11:35;;;;;;;0.60;0.60;;;10.80;75.20;;;10.55;61.91;94231.19;5018750;28;20702;-80
2022/09/18 00:14:05;;;;;;;0.70;0.70;;;10.80;75.00;;;10.55;61.85;94233.81;5032402;28;20235;-81
2022/09/18 00:16:32;;;;;;;0.70;0.70;;;10.80;75.10;;;10.55;61.93;94231.19;5034589;28;20230;-81
2022/09/18 00:19:00;;;;;;;0.60;0.60;;;10.90;75.00;;;10.56;61.74;94242.50;5036044;28;20253;-81
2022/09/18 00:21:28;;;;;;;0.70;0.70;;;10.80;74.90;;;10.54;61.75;94240.06;5036446;28;20276;-80
2022/09/18 00:23:58;;;;;;;0.70;0.70;;;10.80;75.00;;;10.53;61.62;94233.22;5033851;28;20208;-81
2022/09/18 00:26:27;;;;;;;0.60;0.60;;;10.80;75.00;;;10.51;61.55;94234.44;5016551;28;20231;-81
2022/09/18 00:28:54;;;;;;;0.60;0.60;;;10.80;74.70;;;10.47;61.66;94236.66;5032851;28;20254;-81
2022/09/18 00:31:30;;;;;;;0.60;0.60;;;10.80;74.50;;;10.38;61.34;94228.22;5016372;28;20209;-81
2022/09/18 00:34:03;;;;;;;0.60;0.60;;;10.80;74.30;;;10.30;61.39;94225.00;5027180;28;20658;-81
2022/09/18 00:36:30;;;;;;;0.80;0.80;;;10.70;74.20;;;10.24;61.32;94230.06;5051939;28;20230;-80
2022/09/18 00:38:58;;;;;;;0.80;0.80;;;10.60;74.00;;;10.19;61.64;94231.69;5069191;28;20237;-81
2022/09/18 00:41:31;;;;;;;0.80;0.80;;;10.60;74.20;;;10.14;61.57;94236.75;5035022;28;20218;-81
2022/09/18 00:44:38;;;;;;;0.70;0.70;;;10.50;74.30;;;10.05;62.36;94234.34;5049685;28;20283;-82
2022/09/18 00:47:34;;;;;;;0.60;0.60;;;10.50;74.60;;;10.00;62.14;94233.38;5051969;28;20219;-81
2022/09/18 00:50:10;;;;;;;0.70;0.70;;;10.40;74.90;;;10.04;61.95;94237.97;5036300;28;20190;-81
2022/09/18 00:53:00;;;;;;;0.70;0.70;;;10.40;74.90;;;10.06;61.99;94243.03;5050117;28;20214;-81
2022/09/18 00:55:39;;;;;;;0.70;0.70;;;10.40;74.90;;;10.08;62.40;94247.03;5033569;28;20207;-80
2022/09/18 00:58:07;;;;;;;0.70;0.70;;;10.40;74.90;;;10.12;62.13;94239.59;5019779;28;20246;-81
2022/09/18 01:00:34;;;;;;;0.70;0.70;;;10.40;74.90;;;10.13;62.14;94248.25;5049677;28;20203;-81
2022/09/18 01:03:01;;;;;;;0.70;0.70;;;10.40;74.90;;;10.14;62.23;94236.75;5050747;28;20263;-80
2022/09/18 01:05:41;;;;;;;0.80;0.80;;;10.40;74.90;;;10.20;62.01;94246.41;5051631;28;20420;-80
2022/09/18 01:08:41;;;;;;;0.60;0.60;;;10.40;74.90;;;10.19;62.22;94244.78;5051040;28;20230;-80
2022/09/18 01:11:46;;;;;;;0.60;0.60;;;10.50;75.00;;;10.20;62.09;94241.16;5051231;28;20216;-80
2022/09/18 01:14:29;;;;;;;0.70;0.70;;;10.50;75.00;;;10.20;62.00;94244.56;5068658;28;20227;-80
2022/09/18 01:17:24;;;;;;;0.70;0.70;;;10.50;75.00;;;10.18;62.12;94236.13;5052043;28;20227;-82
2022/09/18 01:20:36;;;;;;;0.70;0.70;;;10.50;75.00;;;10.21;62.15;94250.66;5046962;28;20207;-80
2022/09/18 01:23:11;;;;;;;0.75;0.75;;;10.50;75.00;;;10.18;62.11;94244.00;5051846;28;20219;-80
2022/09/18 01:25:56;;;;;;;0.68;0.68;;;10.60;75.00;;;10.17;62.20;94254.69;5018958;28;20198;-80
2022/09/18 01:28:41;;;;;;;0.70;0.70;;;10.60;75.00;;;10.19;62.16;94257.91;5031060;28;20231;-80
2022/09/18 01:31:21;;;;;;;0.80;0.80;;;10.60;75.00;;;10.20;62.02;94249.81;5037266;28;20210;-80
2022/09/18 01:34:00;;;;;;;0.80;0.80;;;10.60;75.00;;;10.25;61.93;94247.41;5035334;28;20264;-80
2022/09/18 01:36:32;;;;;;;0.80;0.80;;;10.60;75.00;;;10.27;61.87;94244.56;5018775;28;20310;-81
2022/09/18 01:39:37;;;;;;;0.70;0.70;;;10.60;75.00;;;10.28;62.06;94248.00;5033220;28;20194;-80
2022/09/18 01:42:09;;;;;;;0.60;0.60;;;10.60;75.00;;;10.26;62.06;94240.34;5034408;28;20280;-80
2022/09/18 01:44:40;;;;;;;0.70;0.70;;;10.60;75.00;;;10.27;61.98;94252.44;5035045;28;20666;-81
2022/09/18 01:47:12;;;;;;;0.70;0.70;;;10.60;75.00;;;10.26;62.09;94261.31;5051368;28;20216;-81
2022/09/18 01:49:48;;;;;;;0.70;0.70;;;10.70;75.00;;;10.23;62.04;94262.53;5032078;28;20253;-81
2022/09/18 01:52:42;;;;;;;0.70;0.70;;;10.60;75.80;;;10.28;62.00;94267.16;5050199;28;20230;-80
2022/09/18 01:55:18;;;;;;;0.70;0.70;;;10.60;75.00;;;10.27;61.91;94281.28;5034781;28;20629;-80
2022/09/18 01:58:00;;;;;;;0.60;0.60;;;10.70;74.80;;;10.27;61.54;94259.50;5034025;28;20246;-81
2022/09/18 02:00:30;;;;;;;0.60;0.60;;;10.70;74.50;;;10.27;61.89;94275.22;5049633;28;20200;-80
2022/09/18 02:03:12;;;;;;;0.70;0.70;;;10.70;74.60;;;10.29;61.57;94274.00;5019119;28;20318;-81
2022/09/18 02:05:53;;;;;;;0.70;0.70;;;10.70;74.30;;;10.30;61.50;94280.88;5018361;28;20205;-81
2022/09/18 02:08:31;;;;;;;0.70;0.70;;;10.70;74.40;;;10.31;61.57;94261.50;5031674;28;20234;-81
2022/09/18 02:11:08;;;;;;;0.60;0.60;;;10.70;74.30;;;10.35;61.69;94270.56;5034589;28;20235;-81
2022/09/18 02:13:52;;;;;;;0.70;0.70;;;10.70;74.40;;;10.40;61.51;94277.84;5050113;28;20223;-80
2022/09/18 02:16:36;;;;;;;0.70;0.70;;;10.80;74.40;;;10.39;61.46;94274.41;5052310;28;20216;-81
2022/09/18 02:19:12;;;;;;;0.60;0.60;;;10.70;74.20;;;10.44;61.21;94276.41;5032007;28;20534;-82
2022/09/18 02:21:41;;;;;;;0.70;0.70;;;10.80;74.40;;;10.45;61.25;94292.94;5057165;28;20211;-80
2022/09/18 02:24:11;;;;;;;0.80;0.80;;;10.80;74.40;;;10.46;61.01;94291.94;5036686;28;20207;-80
2022/09/18 02:26:40;;;;;;;0.60;0.60;;;10.80;74.20;;;10.43;60.96;94281.88;5035992;28;20219;-81
2022/09/18 02:29:11;;;;;;;0.60;0.60;;;10.80;74.10;;;10.43;60.38;94284.50;5034141;28;20191;-81
2022/09/18 02:31:39;;;;;;;0.57;0.57;;;10.80;73.80;;;10.45;60.68;94283.28;5044809;28;20215;-81
2022/09/18 02:34:08;;;;;;;0.70;0.70;;;10.80;73.80;;;10.47;60.60;94275.19;5036185;28;20415;-81
2022/09/18 02:37:06;;;;;;;0.80;0.80;;;10.80;73.60;;;10.43;59.98;94281.88;5048702;28;20219;-81
2022/09/18 02:39:41;;;;;;;0.80;0.80;;;10.80;73.50;;;10.43;60.11;94274.00;5062799;28;20231;-80
2022/09/18 02:42:27;;;;;;;0.80;0.80;;;10.80;73.30;;;10.41;60.22;94269.78;5033103;28;20216;-80
2022/09/18 02:45:13;;;;;;;0.70;0.70;;;10.80;73.30;;;10.38;60.03;94267.56;5048636;28;20203;-81
2022/09/18 02:48:05;;;;;;;0.70;0.70;;;10.80;73.10;;;10.39;59.97;94276.25;5048865;28;20219;-81
2022/09/18 02:50:45;;;;;;;0.80;0.80;;;10.80;73.20;;;10.36;59.60;94276.59;5049010;28;20277;-81
2022/09/18 02:53:33;;;;;;;0.70;0.70;;;10.80;73.00;;;10.36;59.85;94284.47;5066842;28;20222;-80
2022/09/18 02:57:01;;;;;;;0.70;0.70;;;10.80;73.10;;;10.34;59.80;94278.63;5032404;28;20617;-80
2022/09/18 02:59:37;;;;;;;0.70;0.70;;;10.80;72.80;;;10.31;58.73;94276.41;5041181;28;20204;-81
2022/09/18 03:02:07;;;;;;;0.80;0.80;;;10.80;72.50;;;10.32;58.87;94270.19;5047436;28;20256;-80
2022/09/18 03:04:39;;;;;;;0.65;0.65;;;10.70;72.10;;;10.27;58.31;94268.16;5050009;28;20200;-81
2022/09/18 03:07:15;;;;;;;0.63;0.63;;;10.70;72.20;;;10.24;58.82;94282.50;5034910;28;20226;-81
2022/09/18 03:09:45;;;;;;;0.80;0.80;;;10.80;72.20;;;10.20;58.40;94264.75;5050437;28;20208;-80
2022/09/18 03:12:14;;;;;;;0.80;0.80;;;10.60;72.00;;;10.20;57.77;94275.22;5038677;28;20220;-80
2022/09/18 03:14:46;;;;;;;0.70;0.70;;;10.60;71.80;;;10.20;58.35;94262.13;5050111;28;20204;-80
2022/09/18 03:17:14;;;;;;;0.60;0.60;;;10.70;71.80;;;10.20;58.11;94273.41;5047149;28;20223;-81
2022/09/18 03:19:43;;;;;;;0.60;0.60;;;10.60;71.70;;;10.20;57.95;94275.22;5052054;28;20453;-79
2022/09/18 03:22:12;;;;;;;0.70;0.70;;;10.60;71.50;;;10.16;57.35;94282.69;5060273;28;20213;-80
2022/09/18 03:24:39;;;;;;;0.68;0.68;;;10.60;71.30;;;10.17;57.32;94275.66;5048195;28;20184;-81
2022/09/18 03:27:09;;;;;;;0.70;0.70;;;10.60;71.10;;;10.20;57.79;94265.53;5044632;28;20223;-80
2022/09/18 03:29:36;;;;;;;0.77;0.77;;;10.60;71.30;;;10.22;57.23;94271.41;5020741;28;20269;-81
2022/09/18 03:32:04;;;;;;;0.70;0.70;;;10.60;71.10;;;10.21;57.09;94269.00;5058142;28;20226;-81
2022/09/18 03:34:41;;;;;;;0.70;0.70;;;10.60;70.90;;;10.22;57.31;94258.28;5053266;28;20318;-81
2022/09/18 03:37:08;;;;;;;0.70;0.70;;;10.60;72.00;;;10.27;57.18;94257.69;5050518;28;20681;-80
2022/09/18 03:39:35;;;;;;;0.70;0.70;;;10.70;71.10;;;10.30;57.66;94270.38;5033829;28;20241;-81
2022/09/18 03:42:05;;;;;;;0.60;0.60;;;10.70;71.40;;;10.31;57.82;94268.56;5052389;28;20263;-81
2022/09/18 03:44:34;;;;;;;0.70;0.70;;;10.70;71.50;;;10.29;56.88;94260.91;5052196;28;20218;-80
2022/09/18 03:47:03;;;;;;;0.70;0.70;;;10.70;70.90;;;10.30;57.58;94267.75;5019533;28;20234;-81
2022/09/18 03:49:30;;;;;;;0.65;0.65;;;10.70;71.20;;;10.27;57.45;94268.16;5032266;28;20676;-81
2022/09/18 03:51:58;;;;;;;0.70;0.70;;;10.70;71.10;;;10.27;57.71;94268.16;5051323;28;20220;-80
2022/09/18 03:54:29;;;;;;;0.70;0.70;;;10.70;71.30;;;10.23;57.63;94280.88;5034877;28;20251;-81
2022/09/18 03:57:16;;;;;;;0.80;0.80;;;10.70;71.20;;;10.18;58.02;94275.44;5036939;28;20223;-82
2022/09/18 03:59:53;;;;;;;0.80;0.80;;;10.70;71.30;;;10.13;58.56;94290.16;5050714;28;20592;-80
2022/09/18 04:02:39;;;;;;;0.80;0.80;;;10.60;71.50;;;10.06;58.69;94284.94;5052043;28;20230;-81
2022/09/18 04:05:25;;;;;;;0.50;0.50;;;10.60;71.80;;;9.98;58.92;94279.91;5054021;28;20314;-81
2022/09/18 04:08:10;;;;;;;0.60;0.60;;;10.50;71.80;;;9.92;59.24;94328.66;5050256;28;20496;-80
2022/09/18 04:10:46;;;;;;;0.70;0.70;;;10.40;71.90;;;9.86;59.15;94283.16;5033492;28;20236;-81
2022/09/18 04:13:13;;;;;;;0.70;0.70;;;10.40;72.00;;;9.81;59.38;94290.00;5033226;28;20263;-81
2022/09/18 04:15:43;;;;;;;0.60;0.60;;;10.30;72.10;;;9.74;59.60;94292.59;5035265;28;20337;-81
2022/09/18 04:18:11;;;;;;;0.70;0.70;;;10.20;72.30;;;9.71;59.49;94293.81;5069557;28;20247;-81
2022/09/18 04:20:38;;;;;;;0.60;0.60;;;10.20;72.60;;;9.67;60.08;94294.44;5049386;28;20207;-80
2022/09/18 04:23:05;;;;;;;0.80;0.80;;;10.10;72.60;;;9.62;60.05;94302.91;5052171;28;20251;-82
2022/09/18 04:25:33;;;;;;;0.70;0.70;;;10.10;73.70;;;9.60;60.38;94310.94;5035832;28;20192;-82
2022/09/18 04:28:02;;;;;;;0.60;0.60;;;10.00;73.00;;;9.53;61.60;94311.94;5017876;28;20586;-81
2022/09/18 04:30:29;;;;;;;0.70;0.70;;;10.00;73.60;;;9.40;62.76;94323.22;5036424;28;20241;-80
2022/09/18 04:32:57;;;;;;;0.60;0.60;;;9.90;75.40;;;9.26;63.32;94315.34;5035869;28;20660;-80
2022/09/18 04:35:25;;;;;;;0.70;0.70;;;9.90;75.70;;;9.18;63.86;94327.78;5052665;28;20227;-82
2022/09/18 04:37:53;;;;;;;0.70;0.70;;;9.80;75.70;;;9.13;63.63;94317.91;5035073;28;20216;-82
2022/09/18 04:40:20;;;;;;;0.60;0.60;;;9.70;75.60;;;9.01;64.67;94306.38;5051975;28;20235;-82
2022/09/18 04:42:47;;;;;;;0.63;0.63;;;9.70;76.30;;;8.91;64.70;94312.00;5052533;28;20224;-81
2022/09/18 04:45:14;;;;;;;0.60;0.60;;;9.60;76.60;;;8.77;65.41;94319.00;5035835;28;20196;-82
2022/09/18 04:47:44;;;;;;;0.70;0.70;;;9.50;76.90;;;8.80;65.45;94324.66;5035289;28;20773;-81
2022/09/18 04:50:12;;;;;;;0.70;0.70;;;9.40;77.10;;;8.76;66.69;94333.88;5051134;28;20220;-80
2022/09/18 04:52:59;;;;;;;0.70;0.70;;;9.40;77.30;;;8.74;66.17;94319.38;5051887;28;20235;-82
2022/09/18 04:55:27;;;;;;;0.70;0.70;;;9.40;77.50;;;8.71;66.74;94331.03;5034033;28;20236;-78
2022/09/18 04:57:54;;;;;;;0.65;0.65;;;9.40;77.90;;;8.69;66.70;94332.22;5051473;28;20228;-80
2022/09/18 05:00:22;;;;;;;0.60;0.60;;;9.30;78.00;;;8.68;66.52;94335.84;5052289;28;20720;-81
2022/09/18 05:02:51;;;;;;;0.70;0.70;;;9.20;78.10;;;8.70;66.65;94341.69;5050287;28;20618;-81
2022/09/18 05:05:21;;;;;;;0.50;0.50;;;9.20;78.30;;;8.69;66.96;94342.69;5036577;28;20207;-81
2022/09/18 05:07:49;;;;;;;0.70;0.70;;;9.20;78.40;;;8.70;66.93;94345.09;5051042;28;20595;-80
2022/09/18 05:10:19;;;;;;;0.60;0.60;;;9.20;78.60;;;8.70;67.06;94349.53;5034878;28;20204;-80
2022/09/18 05:12:47;;;;;;;0.68;0.68;;;9.20;78.80;;;8.69;67.50;94346.13;5018554;28;20368;-81
2022/09/18 05:15:14;;;;;;;0.63;0.63;;;9.20;78.90;;;8.72;67.28;94350.94;5019197;28;20232;-80
2022/09/18 05:17:45;;;;;;;0.68;0.68;;;9.20;79.00;;;8.74;67.64;94358.59;5034794;28;20270;-81
2022/09/18 05:20:13;;;;;;;0.80;0.80;;;9.20;79.30;;;8.75;67.12;94357.59;5017800;28;20208;-81
2022/09/18 05:22:45;;;;;;;0.70;0.70;;;9.20;79.40;;;8.81;66.91;94367.28;5035241;28;20212;-81
2022/09/18 05:25:23;;;;;;;0.70;0.70;;;9.20;79.60;;;8.81;67.30;94391.63;5036444;28;20199;-81
2022/09/18 05:27:59;;;;;;;0.70;0.70;;;9.20;79.60;;;8.81;67.05;94373.34;5033127;28;20598;-81
2022/09/18 05:30:33;;;;;;;0.70;0.70;;;9.20;80.50;;;8.70;67.54;94371.25;5048134;28;20203;-88
2022/09/18 05:33:06;;;;;;;0.70;0.70;;;9.20;79.80;;;8.74;67.44;94363.81;5035483;28;20223;-83
2022/09/18 05:35:38;;;;;;;0.80;0.80;;;9.20;80.10;;;8.68;68.41;94360.19;5033426;28;20269;-83
2022/09/18 05:38:06;;;;;;;0.80;0.80;;;9.20;80.00;;;8.71;68.13;94359.00;5032820;28;20224;-83
2022/09/18 05:40:38;;;;;;;0.60;0.60;;;9.30;80.20;;;8.71;68.41;94353.78;5032681;28;20208;-83
2022/09/18 05:43:10;;;;;;;0.70;0.70;;;9.20;80.40;;;8.68;68.40;94347.13;5035807;28;20219;-82
2022/09/18 05:45:38;;;;;;;0.70;0.70;;;9.30;80.60;;;8.77;68.42;94358.22;5019148;28;20287;-82
2022/09/18 05:48:15;;;;;;;0.70;0.70;;;9.30;80.80;;;8.85;68.12;94358.06;5019905;28;20274;-80
2022/09/18 05:50:43;;;;;;;0.70;0.70;;;9.30;81.00;;;8.85;68.53;94363.28;5051703;28;20560;-82
2022/09/18 05:53:19;;;;;;;0.70;0.70;;;9.30;81.00;;;8.92;68.03;94368.53;5019711;28;20231;-81
2022/09/18 05:56:07;;;;;;;0.60;0.60;;;9.40;81.20;;;8.93;68.37;94368.34;5024539;28;20220;-82
2022/09/18 05:58:35;;;;;;;0.80;0.80;;;9.30;80.90;;;8.99;68.29;94373.81;5050610;28;20261;-81
2022/09/18 06:01:03;;;;;;;0.65;0.65;;;9.30;80.90;;;8.95;68.05;94368.97;5050535;28;20253;-82
2022/09/18 06:03:56;;;;;;;0.70;0.70;;;9.30;80.80;;;8.97;68.02;94371.38;5015408;28;20196;-83
2022/09/18 06:06:27;;;;;;;0.70;0.70;;;9.40;80.80;;;8.96;67.66;94375.00;5051603;28;20257;-81
2022/09/18 06:08:54;;;;;;;0.60;0.60;;;9.40;80.80;;;8.97;67.73;94381.81;5032839;28;20192;-82
2022/09/18 06:11:23;;;;;;;0.60;0.60;;;9.40;80.90;;;8.97;68.17;94393.13;5019261;28;20233;-82
2022/09/18 06:13:51;;;;;;;0.70;0.70;;;9.40;81.10;;;8.97;68.03;94382.66;5034582;28;20223;-83
2022/09/18 06:16:19;;;;;;;0.50;0.50;;;9.40;81.30;;;9.02;68.35;94402.19;5018865;28;20258;-83
2022/09/18 06:18:55;;;;;;;0.80;0.80;;;9.40;81.50;;;9.10;68.40;94391.56;5034205;28;20204;-83
2022/09/18 06:21:22;;;;;;;0.70;0.70;;;9.40;82.00;;;9.19;68.91;94398.25;5033530;28;20237;-83
2022/09/18 06:23:49;;;;;;;0.80;0.80;;;9.50;82.20;;;9.24;68.67;94393.22;5050721;28;20198;-83
2022/09/18 06:26:25;;;;;;;0.70;0.70;;;9.60;82.30;;;9.36;68.35;94408.34;5051686;28;20685;-82
2022/09/18 06:28:52;;;;;;;0.68;0.68;;;9.60;82.10;;;9.45;68.25;94397.50;5055507;28;20199;-81
2022/09/18 06:31:21;;;;;;;0.70;0.70;;;9.70;82.30;;;9.49;68.13;94386.66;5039031;28;20219;-80
2022/09/18 06:34:06;;;;;;;0.60;0.60;;;9.80;82.00;;;9.61;67.88;94406.00;5024698;28;20622;-81
2022/09/18 06:36:33;;;;;;;0.80;0.80;;;9.80;82.00;;;9.64;67.81;94402.19;5025940;28;20256;-82
2022/09/18 06:39:15;;;;;;;0.70;0.70;;;9.90;81.80;;;9.64;66.94;94433.59;5034527;28;20573;-82
2022/09/18 06:41:45;;;;;;;0.70;0.70;;;9.90;81.30;;;9.66;67.08;94415.91;5035713;28;20220;-82
2022/09/18 06:44:38;;;;;;;0.60;0.60;;;10.00;80.20;;;9.72;67.17;94420.34;5049313;28;20203;-80
2022/09/18 06:47:07;;;;;;;0.70;0.70;;;10.00;80.50;;;9.73;66.73;94414.09;5031309;28;20334;-82
2022/09/18 06:49:43;;;;;;;0.80;0.80;;;10.10;80.20;;;9.81;67.22;94415.72;5017351;28;20330;-82
2022/09/18 06:52:10;;;;;;;0.70;0.70;;;10.00;80.70;;;9.84;66.91;94426.59;5032313;28;20701;-82
2022/09/18 06:54:38;;;;;;;0.73;0.73;;;10.20;80.60;;;9.96;67.19;94413.72;5034675;28;20219;-83
2022/09/18 06:57:06;;;;;;;0.70;0.70;;;10.20;80.80;;;10.05;66.50;94415.13;5037062;28;20226;-84
2022/09/18 06:59:34;;;;;;;0.70;0.70;;;10.20;81.50;;;10.16;66.73;94428.66;5069405;28;20275;-82
2022/09/18 07:02:01;;;;;;;0.70;0.70;;;10.30;80.80;;;10.23;65.20;94439.94;5053238;28;20247;-81
2022/09/18 07:04:45;;;;;;;0.70;0.70;;;10.40;80.00;;;10.31;65.44;94446.81;5038596;28;20211;-80
2022/09/18 07:07:15;;;;;;;0.70;0.70;;;10.50;80.20;;;10.42;65.49;94420.00;5036771;28;20741;-82
2022/09/18 07:09:45;;;;;;;0.70;0.70;;;10.60;80.40;;;10.55;66.07;94427.06;5014860;28;20230;-82
2022/09/18 07:12:26;;;;;;;0.70;0.70;;;10.70;80.50;;;10.64;65.57;94436.31;5052044;28;20229;-81
2022/09/18 07:14:54;;;;;;;0.70;0.70;;;10.80;80.70;;;10.71;64.38;94425.81;5033043;28;20637;-82
2022/09/18 07:17:25;;;;;;;0.80;0.80;;;10.90;79.90;;;10.86;64.29;94431.66;5025930;28;20228;-82
2022/09/18 07:19:55;;;;;;;0.60;0.60;;;11.00;79.50;;;10.98;63.52;94428.41;5031331;28;20306;-82
2022/09/18 07:22:31;;;;;;;0.60;0.60;;;11.10;79.30;;;11.15;64.24;94440.03;5036950;28;20226;-81
2022/09/18 07:24:58;;;;;;;0.60;0.60;;;11.20;79.80;;;11.20;62.20;94411.38;5030802;28;20574;-81
2022/09/18 07:27:27;;;;;;;0.70;0.70;;;11.40;78.60;;;11.30;62.35;94431.13;5033993;28;20245;-81
2022/09/18 07:29:55;;;;;;;0.80;0.80;;;11.50;78.20;;;11.36;62.93;94415.34;5032746;28;20199;-82
2022/09/18 07:32:23;;;;;;;0.60;0.60;;;11.60;78.90;;;11.57;63.13;94426.56;5019662;28;20211;-83
2022/09/18 07:34:51;;;;;;;0.70;0.70;;;11.70;79.10;;;11.71;63.42;94424.66;5012775;28;20200;-83
2022/09/18 07:37:24;;;;;;;0.65;0.65;;;11.80;79.30;;;11.85;62.33;94406.97;5035392;28;20234;-82
2022/09/18 07:40:09;;;;;;;0.70;0.70;;;12.00;78.40;;;11.91;60.08;94411.38;5023817;28;20210;-83
2022/09/18 07:43:04;;;;;;;0.65;0.65;;;12.10;76.90;;;11.96;59.36;94416.88;5036583;28;20725;-83
2022/09/18 07:45:33;;;;;;;0.60;0.60;;;12.20;76.10;;;12.00;59.93;94404.09;5019834;28;20302;-82
2022/09/18 07:48:02;;;;;;;0.60;0.60;;;12.30;76.20;;;12.04;59.71;94404.50;5049741;28;20247;-82
2022/09/18 07:50:31;;;;;;;0.60;0.60;;;12.30;76.20;;;12.09;60.71;94433.56;5036447;28;20206;-82
2022/09/18 07:53:02;;;;;;;0.60;0.60;;;12.40;76.30;;;12.17;60.65;94417.53;5014829;28;20220;-81
2022/09/18 07:55:35;;;;;;;0.70;0.70;;;12.40;76.30;;;12.26;61.39;94424.13;5030801;28;20234;-82
2022/09/18 07:58:05;;;;;;;0.70;0.70;;;12.50;76.40;;;12.33;61.24;94434.59;5034638;28;20220;-82
2022/09/18 08:00:51;;;;;;;0.80;0.80;;;12.60;76.50;;;12.39;60.46;94432.91;5036337;28;20210;-81
2022/09/18 08:03:20;;;;;;;0.63;0.63;;;12.60;76.40;;;12.45;59.79;94417.09;5033208;28;20594;-82
2022/09/18 08:06:19;;;;;;;0.70;0.70;;;12.70;75.80;;;12.51;59.25;94433.03;5038844;28;20223;-81
2022/09/18 08:09:15;;;;;;;0.50;0.50;;;12.80;75.00;;;12.54;60.34;94433.41;5039425;28;20265;-82
2022/09/18 08:11:59;;;;;;;0.60;0.60;;;12.80;75.90;;;12.58;60.09;94421.44;5042480;28;20238;-81
2022/09/18 08:14:39;;;;;;;0.65;0.65;;;12.90;75.50;;;12.63;58.38;94424.22;5049239;28;20249;-82
2022/09/18 08:17:25;;;;;;;0.60;0.60;;;12.90;74.90;;;12.69;58.32;94432.28;5045904;28;20681;-80
2022/09/18 08:20:03;;;;;;;0.60;0.60;;;13.00;74.40;;;12.75;58.59;94426.94;5034847;28;20206;-81
2022/09/18 08:22:41;;;;;;;0.60;0.60;;;13.10;74.70;;;12.89;58.09;94434.69;5019340;28;20307;-83
2022/09/18 08:25:10;;;;;;;0.60;0.60;;;13.10;74.00;;;13.01;59.82;94437.44;5034506;28;20195;-82
2022/09/18 08:27:41;;;;;;;0.60;0.60;;;13.20;75.50;;;13.13;58.63;94428.59;5014637;28;20717;-82
2022/09/18 08:30:12;;;;;;;0.70;0.70;;;13.40;74.70;;;13.32;59.73;94439.13;5016239;28;20199;-82
2022/09/18 08:32:40;;;;;;;0.60;0.60;;;13.50;75.10;;;13.41;56.74;94450.97;5015411;28;20212;-82
2022/09/18 08:35:10;;;;;;;0.80;0.80;;;13.70;73.60;;;13.48;57.73;94437.75;5017360;28;20191;-83
2022/09/18 08:37:46;;;;;;;0.60;0.60;;;13.80;73.90;;;13.54;56.08;94441.34;5048961;28;20215;-84
2022/09/18 08:41:10;;;;;;;0.65;0.65;;;13.80;72.10;;;13.49;55.45;94436.72;5033659;28;20199;-84
2022/09/18 08:44:10;;;;;;;0.60;0.60;;;13.90;71.50;;;13.49;56.46;94449.06;5039325;28;20211;-84
2022/09/18 08:47:04;;;;;;;0.65;0.65;;;13.90;71.70;;;13.52;57.37;94444.16;5049140;28;20214;-84
2022/09/18 08:49:48;;;;;;;0.60;0.60;;;13.90;71.90;;;13.58;57.64;94445.91;5019069;28;20192;-82
2022/09/18 08:52:40;;;;;;;0.60;0.60;;;13.90;72.40;;;13.57;55.67;94433.78;5034827;28;20215;-84
2022/09/18 08:55:35;;;;;;;0.60;0.60;;;14.00;71.40;;;13.65;56.60;94442.41;5023683;28;20222;-83
2022/09/18 08:58:25;;;;;;;0.60;0.60;;;14.10;71.10;;;13.74;56.51;94446.34;5037953;28;20211;-83
2022/09/18 09:01:10;;;;;;;0.60;0.60;;;14.10;71.30;;;13.80;56.82;94431.47;5021025;28;20271;-82
2022/09/18 09:03:49;;;;;;;0.60;0.60;;;14.10;71.40;;;13.84;57.18;94432.63;5028954;28;20212;-83
2022/09/18 09:06:23;;;;;;;0.70;0.70;;;14.20;71.40;;;13.83;56.32;94431.84;5057008;28;20736;-82
2022/09/18 09:09:10;;;;;;;0.80;0.80;;;14.30;71.50;;;13.75;56.85;94440.84;5036260;28;20199;-82
2022/09/18 09:12:10;;;;;;;0.60;0.60;;;14.20;71.20;;;13.66;57.04;94458.00;5031802;28;20238;-83
2022/09/18 09:15:18;;;;;;;0.77;0.77;;;14.20;71.20;;;13.47;57.67;94459.03;5043798;28;20235;-87
2022/09/18 09:18:17;;;;;;;0.80;0.80;;;14.10;71.90;;;13.20;58.55;94454.06;5048935;28;20224;-84
2022/09/18 09:20:55;;;;;;;0.80;0.80;;;13.90;72.70;;;13.10;59.57;94460.63;5041722;28;20199;-83
2022/09/18 09:23:47;;;;;;;0.60;0.60;;;13.70;73.20;;;12.92;59.68;94432.44;5027796;28;20199;-84
2022/09/18 09:26:36;;;;;;;0.60;0.60;;;13.60;73.20;;;12.86;59.94;94451.75;5036855;28;20231;-83
2022/09/18 09:29:43;;;;;;;0.70;0.70;;;13.50;73.20;;;12.89;60.93;94432.06;5027275;28;20228;-82
2022/09/18 09:32:45;;;;;;;0.60;0.60;;;13.40;75.00;;;13.02;61.98;94418.78;5025421;28;20372;-83
2022/09/18 09:35:40;;;;;;;0.70;0.70;;;13.50;75.00;;;13.15;61.76;94433.63;5019767;28;20219;-85
2022/09/18 09:38:32;;;;;;;0.60;0.60;;;13.50;75.00;;;13.15;60.06;94467.06;5030446;28;20231;-84
2022/09/18 09:41:31;;;;;;;0.60;0.60;;;13.60;73.90;;;13.00;59.25;94456.88;5048133;28;20295;-83
2022/09/18 09:44:32;;;;;;;0.60;0.60;;;13.50;73.10;;;12.74;59.42;94491.13;5047976;28;20207;-83
2022/09/18 09:47:11;;;;;;;0.80;0.80;;;13.40;72.90;;;12.51;60.20;94477.75;5034485;28;20247;-83
2022/09/18 09:50:31;;;;;;;0.60;0.60;;;13.20;73.10;;;12.38;61.26;94489.16;5044164;28;20246;-84
2022/09/18 09:53:08;;;;;;;0.70;0.70;;;13.10;74.00;;;12.37;61.92;94477.84;5034017;28;20311;-83
2022/09/18 09:56:06;;;;;;;0.70;0.70;;;13.00;74.50;;;12.37;62.10;94483.13;5017863;28;20510;-83
2022/09/18 09:58:55;;;;;;;0.60;0.60;;;13.00;74.90;;;12.40;61.80;94480.06;5034302;28;20199;-83
2022/09/18 10:01:42;;;;;;;0.60;0.60;;;13.00;74.60;;;12.42;62.15;94475.38;5049719;28;20299;-84
2022/09/18 10:04:28;;;;;;;0.60;0.60;;;13.00;74.70;;;12.48;62.13;94469.25;5016373;28;20203;-82
2022/09/18 10:07:21;;;;;;;0.80;0.80;;;13.00;74.80;;;12.59;61.55;94483.56;5066120;28;20301;-83
2022/09/18 10:09:55;;;;;;;0.60;0.60;;;13.00;75.00;;;12.61;60.86;94472.84;5046149;28;20199;-83
2022/09/18 10:12:30;;;;;;;0.60;0.60;;;13.10;74.30;;;12.72;60.31;94464.22;5033832;28;20309;-83
2022/09/18 10:15:37;;;;;;;0.60;0.60;;;13.10;73.80;;;12.88;59.31;94457.59;5066151;28;20205;-83
2022/09/18 10:18:15;;;;;;;0.60;0.60;;;13.20;72.50;;;13.06;60.00;94461.25;5048786;28;20681;-83
2022/09/18 10:20:46;;;;;;;0.60;0.60;;;13.30;74.10;;;13.28;59.76;94451.94;5032315;28;20218;-83
2022/09/18 10:23:25;;;;;;;0.60;0.60;;;13.50;74.50;;;13.56;60.34;94469.06;5016968;28;20219;-83
2022/09/18 10:26:00;;;;;;;0.52;0.52;;;13.60;74.80;;;13.81;58.68;94462.09;5032664;28;20199;-82
2022/09/18 10:28:29;;;;;;;0.50;0.50;;;13.90;73.60;;;14.04;58.36;94456.09;5034726;28;20266;-82
2022/09/18 10:31:04;;;;;;;0.73;0.73;;;14.10;73.70;;;14.22;58.59;94487.66;5030275;28;20206;-83
2022/09/18 10:33:40;;;;;;;0.60;0.60;;;14.30;73.50;;;14.36;57.77;94487.47;5029515;28;20242;-82
2022/09/18 10:36:31;;;;;;;0.70;0.70;;;14.50;73.00;;;14.44;58.77;94491.63;5033710;28;20622;-82
2022/09/18 10:39:28;;;;;;;0.70;0.70;;;14.70;73.60;;;14.53;58.84;94490.28;5034151;28;20245;-83
2022/09/18 10:42:04;;;;;;;0.60;0.60;;;14.80;73.50;;;14.49;58.46;94484.63;5053149;28;20225;-81
2022/09/18 10:44:36;;;;;;;0.70;0.70;;;14.90;72.80;;;14.47;58.37;94481.41;5022363;28;20294;-82
2022/09/18 10:47:19;;;;;;;0.70;0.70;;;14.90;72.30;;;14.37;57.97;94486.47;5054347;28;20218;-82
2022/09/18 10:50:05;;;;;;;0.60;0.60;;;14.80;72.00;;;14.27;57.43;94489.63;5035032;28;20661;-83
2022/09/18 10:52:47;;;;;;;0.80;0.80;;;14.80;71.70;;;14.12;58.06;94478.69;5054697;28;20708;-84
2022/09/18 10:55:27;;;;;;;0.70;0.70;;;14.70;71.80;;;14.05;58.38;94476.16;5037394;28;20203;-82
2022/09/18 10:58:12;;;;;;;0.45;0.45;;;14.60;72.20;;;14.08;58.78;94473.06;5052978;28;20238;-84
2022/09/18 11:00:55;;;;;;;0.70;0.70;;;14.60;72.70;;;14.09;58.62;94467.56;5036332;28;20200;-81
2022/09/18 11:03:33;;;;;;;0.60;0.60;;;14.50;72.00;;;14.14;58.66;94466.09;5036050;28;20192;-80
2022/09/18 11:06:06;;;;;;;0.70;0.70;;;14.50;72.70;;;14.23;59.38;94454.19;5050805;28;20201;-81